sensor_id;sensor_type;location;lat;lon;timestamp;pressure;altitude;pressure_sealevel;temperature
76347;BMP280;77107;48.816;9.966;2024-03-08T00:01:15;96605.56;;;2.55
76347;BMP280;77107;48.816;9.966;2024-03-08T00:03:41;96599.56;;;2.56
76347;BMP280;77107;48.816;9.966;2024-03-08T00:06:06;96599.25;;;2.54
76347;BMP280;77107;48.816;9.966;2024-03-08T00:08:32;96604.94;;;2.51
76347;BMP280;77107;48.816;9.966;2024-03-08T00:10:57;96599.34;;;2.51
76347;BMP280;77107;48.816;9.966;2024-03-08T00:13:23;96599.47;;;2.47
76347;BMP280;77107;48.816;9.966;2024-03-08T00:15:51;96592.31;;;2.46
76347;BMP280;77107;48.816;9.966;2024-03-08T00:18:17;96593.31;;;2.52
76347;BMP280;77107;48.816;9.966;2024-03-08T00:20:42;96595.66;;;2.54
76347;BMP280;77107;48.816;9.966;2024-03-08T00:23:10;96601.69;;;2.40
76347;BMP280;77107;48.816;9.966;2024-03-08T00:25:36;96595.31;;;2.39
76347;BMP280;77107;48.816;9.966;2024-03-08T00:28:01;96596.69;;;2.47
76347;BMP280;77107;48.816;9.966;2024-03-08T00:30:27;96594.09;;;2.40
76347;BMP280;77107;48.816;9.966;2024-03-08T00:32:53;96593.97;;;2.44
76347;BMP280;77107;48.816;9.966;2024-03-08T00:35:19;96590.19;;;2.38
76347;BMP280;77107;48.816;9.966;2024-03-08T00:37:44;96595.88;;;2.34
76347;BMP280;77107;48.816;9.966;2024-03-08T00:40:12;96585.09;;;2.36
76347;BMP280;77107;48.816;9.966;2024-03-08T00:42:37;96582.28;;;2.36
76347;BMP280;77107;48.816;9.966;2024-03-08T00:45:05;96584.50;;;2.41
76347;BMP280;77107;48.816;9.966;2024-03-08T00:47:30;96575.81;;;2.39
76347;BMP280;77107;48.816;9.966;2024-03-08T00:49:57;96577.06;;;2.38
76347;BMP280;77107;48.816;9.966;2024-03-08T00:52:23;96569.47;;;2.26
76347;BMP280;77107;48.816;9.966;2024-03-08T00:54:49;96564.22;;;2.28
76347;BMP280;77107;48.816;9.966;2024-03-08T00:57:14;96568.25;;;2.27
76347;BMP280;77107;48.816;9.966;2024-03-08T00:59:40;96565.25;;;2.34
76347;BMP280;77107;48.816;9.966;2024-03-08T01:02:05;96554.88;;;2.22
76347;BMP280;77107;48.816;9.966;2024-03-08T01:04:31;96557.09;;;2.27
76347;BMP280;77107;48.816;9.966;2024-03-08T01:06:59;96552.97;;;2.32
76347;BMP280;77107;48.816;9.966;2024-03-08T01:09:25;96550.75;;;2.14
76347;BMP280;77107;48.816;9.966;2024-03-08T01:11:52;96554.88;;;2.22
76347;BMP280;77107;48.816;9.966;2024-03-08T01:14:18;96550.28;;;2.16
76347;BMP280;77107;48.816;9.966;2024-03-08T01:16:43;96547.72;;;2.09
76347;BMP280;77107;48.816;9.966;2024-03-08T01:19:08;96542.41;;;2.14
76347;BMP280;77107;48.816;9.966;2024-03-08T01:21:34;96541.50;;;2.17
76347;BMP280;77107;48.816;9.966;2024-03-08T01:24:00;96542.03;;;2.12
76347;BMP280;77107;48.816;9.966;2024-03-08T01:26:26;96535.94;;;2.17
76347;BMP280;77107;48.816;9.966;2024-03-08T01:28:51;96526.13;;;2.13
76347;BMP280;77107;48.816;9.966;2024-03-08T01:31:16;96527.00;;;2.10
76347;BMP280;77107;48.816;9.966;2024-03-08T01:33:42;96534.03;;;2.02
76347;BMP280;77107;48.816;9.966;2024-03-08T01:36:07;96526.78;;;2.04
76347;BMP280;77107;48.816;9.966;2024-03-08T01:38:33;96528.03;;;2.03
76347;BMP280;77107;48.816;9.966;2024-03-08T01:41:00;96524.34;;;2.06
76347;BMP280;77107;48.816;9.966;2024-03-08T01:43:26;96514.75;;;2.07
76347;BMP280;77107;48.816;9.966;2024-03-08T01:45:54;96514.13;;;2.03
76347;BMP280;77107;48.816;9.966;2024-03-08T01:48:20;96507.78;;;2.15
76347;BMP280;77107;48.816;9.966;2024-03-08T01:50:49;96509.19;;;2.07
76347;BMP280;77107;48.816;9.966;2024-03-08T01:53:15;96499.84;;;2.01
76347;BMP280;77107;48.816;9.966;2024-03-08T01:55:44;96512.56;;;2.02
76347;BMP280;77107;48.816;9.966;2024-03-08T01:58:13;96496.06;;;1.95
76347;BMP280;77107;48.816;9.966;2024-03-08T02:00:43;96497.53;;;2.00
76347;BMP280;77107;48.816;9.966;2024-03-08T02:03:09;96488.06;;;1.97
76347;BMP280;77107;48.816;9.966;2024-03-08T02:05:35;96481.50;;;1.91
76347;BMP280;77107;48.816;9.966;2024-03-08T02:08:01;96479.47;;;1.92
76347;BMP280;77107;48.816;9.966;2024-03-08T02:10:27;96487.03;;;2.04
76347;BMP280;77107;48.816;9.966;2024-03-08T02:12:53;96483.16;;;2.01
76347;BMP280;77107;48.816;9.966;2024-03-08T02:15:20;96481.25;;;1.98
76347;BMP280;77107;48.816;9.966;2024-03-08T02:17:46;96475.25;;;1.87
76347;BMP280;77107;48.816;9.966;2024-03-08T02:20:12;96482.69;;;1.90
76347;BMP280;77107;48.816;9.966;2024-03-08T02:22:39;96476.94;;;1.97
76347;BMP280;77107;48.816;9.966;2024-03-08T02:25:05;96466.34;;;1.92
76347;BMP280;77107;48.816;9.966;2024-03-08T02:27:31;96463.47;;;1.96
76347;BMP280;77107;48.816;9.966;2024-03-08T02:29:58;96471.91;;;1.92
76347;BMP280;77107;48.816;9.966;2024-03-08T02:32:23;96461.66;;;1.89
76347;BMP280;77107;48.816;9.966;2024-03-08T02:34:49;96458.00;;;1.92
76347;BMP280;77107;48.816;9.966;2024-03-08T02:37:15;96454.09;;;1.90
76347;BMP280;77107;48.816;9.966;2024-03-08T02:39:41;96452.00;;;1.94
76347;BMP280;77107;48.816;9.966;2024-03-08T02:42:07;96457.00;;;1.86
76347;BMP280;77107;48.816;9.966;2024-03-08T02:44:32;96445.97;;;1.83
76347;BMP280;77107;48.816;9.966;2024-03-08T02:46:58;96454.22;;;1.86
76347;BMP280;77107;48.816;9.966;2024-03-08T02:49:25;96456.44;;;1.91
76347;BMP280;77107;48.816;9.966;2024-03-08T02:51:51;96450.75;;;1.82
76347;BMP280;77107;48.816;9.966;2024-03-08T02:54:17;96446.31;;;1.85
76347;BMP280;77107;48.816;9.966;2024-03-08T02:56:43;96443.97;;;1.83
76347;BMP280;77107;48.816;9.966;2024-03-08T02:59:09;96435.63;;;1.83
76347;BMP280;77107;48.816;9.966;2024-03-08T03:01:34;96434.75;;;1.86
76347;BMP280;77107;48.816;9.966;2024-03-08T03:04:01;96440.84;;;1.81
76347;BMP280;77107;48.816;9.966;2024-03-08T03:06:26;96441.84;;;1.75
76347;BMP280;77107;48.816;9.966;2024-03-08T03:08:51;96436.84;;;1.82
76347;BMP280;77107;48.816;9.966;2024-03-08T03:11:17;96433.50;;;1.75
76347;BMP280;77107;48.816;9.966;2024-03-08T03:13:43;96429.06;;;1.77
76347;BMP280;77107;48.816;9.966;2024-03-08T03:16:17;96419.16;;;1.76
76347;BMP280;77107;48.816;9.966;2024-03-08T03:18:43;96434.63;;;1.77
76347;BMP280;77107;48.816;9.966;2024-03-08T03:21:09;96420.38;;;1.75
76347;BMP280;77107;48.816;9.966;2024-03-08T03:23:34;96428.25;;;1.64
76347;BMP280;77107;48.816;9.966;2024-03-08T03:26:00;96435.50;;;1.74
76347;BMP280;77107;48.816;9.966;2024-03-08T03:28:25;96428.38;;;1.73
76347;BMP280;77107;48.816;9.966;2024-03-08T03:30:52;96418.03;;;1.74
76347;BMP280;77107;48.816;9.966;2024-03-08T03:33:18;96430.59;;;1.78
76347;BMP280;77107;48.816;9.966;2024-03-08T03:35:43;96418.81;;;1.74
76347;BMP280;77107;48.816;9.966;2024-03-08T03:38:09;96416.38;;;1.76
76347;BMP280;77107;48.816;9.966;2024-03-08T03:40:35;96416.16;;;1.83
76347;BMP280;77107;48.816;9.966;2024-03-08T03:43:01;96419.38;;;1.69
76347;BMP280;77107;48.816;9.966;2024-03-08T03:45:26;96411.91;;;1.66
76347;BMP280;77107;48.816;9.966;2024-03-08T03:47:53;96418.81;;;1.74
76347;BMP280;77107;48.816;9.966;2024-03-08T03:50:18;96410.03;;;1.76
76347;BMP280;77107;48.816;9.966;2024-03-08T03:52:47;96402.03;;;1.78
76347;BMP280;77107;48.816;9.966;2024-03-08T03:55:13;96403.69;;;1.75
76347;BMP280;77107;48.816;9.966;2024-03-08T03:57:39;96405.03;;;1.83
76347;BMP280;77107;48.816;9.966;2024-03-08T04:00:05;96396.34;;;1.81
76347;BMP280;77107;48.816;9.966;2024-03-08T04:02:31;96397.59;;;1.80
76347;BMP280;77107;48.816;9.966;2024-03-08T04:04:58;96396.56;;;1.74
76347;BMP280;77107;48.816;9.966;2024-03-08T04:07:24;96395.34;;;1.75
76347;BMP280;77107;48.816;9.966;2024-03-08T04:09:49;96387.88;;;1.72
76347;BMP280;77107;48.816;9.966;2024-03-08T04:12:15;96392.69;;;1.72
76347;BMP280;77107;48.816;9.966;2024-03-08T04:14:41;96393.25;;;1.79
76347;BMP280;77107;48.816;9.966;2024-03-08T04:17:07;96393.56;;;1.81
76347;BMP280;77107;48.816;9.966;2024-03-08T04:19:34;96384.56;;;1.77
76347;BMP280;77107;48.816;9.966;2024-03-08T04:22:01;96387.00;;;1.75
76347;BMP280;77107;48.816;9.966;2024-03-08T04:24:27;96388.44;;;1.80
76347;BMP280;77107;48.816;9.966;2024-03-08T04:26:52;96382.22;;;1.76
76347;BMP280;77107;48.816;9.966;2024-03-08T04:29:18;96381.53;;;1.84
76347;BMP280;77107;48.816;9.966;2024-03-08T04:31:44;96378.13;;;1.80
76347;BMP280;77107;48.816;9.966;2024-03-08T04:34:09;96382.78;;;1.83
76347;BMP280;77107;48.816;9.966;2024-03-08T04:36:35;96379.53;;;1.85
76347;BMP280;77107;48.816;9.966;2024-03-08T04:39:02;96387.69;;;1.79
76347;BMP280;77107;48.816;9.966;2024-03-08T04:41:27;96383.69;;;1.80
76347;BMP280;77107;48.816;9.966;2024-03-08T04:43:53;96379.34;;;1.79
76347;BMP280;77107;48.816;9.966;2024-03-08T04:46:18;96376.88;;;1.81
76347;BMP280;77107;48.816;9.966;2024-03-08T04:48:44;96376.97;;;1.90
76347;BMP280;77107;48.816;9.966;2024-03-08T04:51:10;96366.31;;;1.76
76347;BMP280;77107;48.816;9.966;2024-03-08T04:53:35;96365.53;;;1.76
76347;BMP280;77107;48.816;9.966;2024-03-08T04:56:02;96370.31;;;1.75
76347;BMP280;77107;48.816;9.966;2024-03-08T04:58:31;96366.31;;;1.76
76347;BMP280;77107;48.816;9.966;2024-03-08T05:00:56;96371.75;;;1.80
76347;BMP280;77107;48.816;9.966;2024-03-08T05:03:22;96364.31;;;1.77
76347;BMP280;77107;48.816;9.966;2024-03-08T05:05:47;96362.53;;;1.83
76347;BMP280;77107;48.816;9.966;2024-03-08T05:08:12;96359.88;;;1.79
76347;BMP280;77107;48.816;9.966;2024-03-08T05:10:38;96361.31;;;1.71
76347;BMP280;77107;48.816;9.966;2024-03-08T05:13:05;96360.94;;;1.82
76347;BMP280;77107;48.816;9.966;2024-03-08T05:15:30;96358.28;;;1.78
76347;BMP280;77107;48.816;9.966;2024-03-08T05:18:00;96359.28;;;1.84
76347;BMP280;77107;48.816;9.966;2024-03-08T05:20:25;96358.63;;;1.80
76347;BMP280;77107;48.816;9.966;2024-03-08T05:22:51;96356.31;;;1.91
76347;BMP280;77107;48.816;9.966;2024-03-08T05:25:17;96353.84;;;1.93
76347;BMP280;77107;48.816;9.966;2024-03-08T05:27:42;96345.28;;;1.88
76347;BMP280;77107;48.816;9.966;2024-03-08T05:30:10;96347.84;;;1.82
76347;BMP280;77107;48.816;9.966;2024-03-08T05:32:40;96344.28;;;1.94
76347;BMP280;77107;48.816;9.966;2024-03-08T05:35:08;96345.38;;;1.84
76347;BMP280;77107;48.816;9.966;2024-03-08T05:37:35;96339.06;;;1.84
76347;BMP280;77107;48.816;9.966;2024-03-08T05:40:00;96332.59;;;1.87
76347;BMP280;77107;48.816;9.966;2024-03-08T05:42:26;96348.50;;;1.86
76347;BMP280;77107;48.816;9.966;2024-03-08T05:44:51;96345.72;;;1.86
76347;BMP280;77107;48.816;9.966;2024-03-08T05:47:18;96346.97;;;1.85
76347;BMP280;77107;48.816;9.966;2024-03-08T05:49:44;96335.38;;;1.87
76347;BMP280;77107;48.816;9.966;2024-03-08T05:52:10;96335.59;;;1.92
76347;BMP280;77107;48.816;9.966;2024-03-08T05:54:35;96336.47;;;1.89
76347;BMP280;77107;48.816;9.966;2024-03-08T05:57:00;96338.25;;;1.83
76347;BMP280;77107;48.816;9.966;2024-03-08T05:59:26;96341.84;;;1.84
76347;BMP280;77107;48.816;9.966;2024-03-08T06:01:52;96340.41;;;1.79
76347;BMP280;77107;48.816;9.966;2024-03-08T06:04:18;96343.94;;;1.92
76347;BMP280;77107;48.816;9.966;2024-03-08T06:06:44;96344.81;;;1.89
76347;BMP280;77107;48.816;9.966;2024-03-08T06:09:09;96342.72;;;1.93
76347;BMP280;77107;48.816;9.966;2024-03-08T06:11:39;96346.50;;;1.99
76347;BMP280;77107;48.816;9.966;2024-03-08T06:14:04;96341.84;;;1.96
76347;BMP280;77107;48.816;9.966;2024-03-08T06:16:31;96343.59;;;2.03
76347;BMP280;77107;48.816;9.966;2024-03-08T06:18:58;96343.69;;;2.12
76347;BMP280;77107;48.816;9.966;2024-03-08T06:21:25;96338.16;;;1.99
76347;BMP280;77107;48.816;9.966;2024-03-08T06:23:52;96347.41;;;1.96
76347;BMP280;77107;48.816;9.966;2024-03-08T06:26:19;96348.47;;;1.99
76347;BMP280;77107;48.816;9.966;2024-03-08T06:28:45;96339.94;;;1.93
76347;BMP280;77107;48.816;9.966;2024-03-08T06:31:10;96338.69;;;1.94
76347;BMP280;77107;48.816;9.966;2024-03-08T06:33:36;96350.38;;;2.02
76347;BMP280;77107;48.816;9.966;2024-03-08T06:36:02;96349.16;;;1.90
76347;BMP280;77107;48.816;9.966;2024-03-08T06:38:29;96341.59;;;2.03
76347;BMP280;77107;48.816;9.966;2024-03-08T06:40:55;96343.81;;;1.96
76347;BMP280;77107;48.816;9.966;2024-03-08T06:43:21;96346.59;;;1.96
76347;BMP280;77107;48.816;9.966;2024-03-08T06:45:47;96344.16;;;1.98
76347;BMP280;77107;48.816;9.966;2024-03-08T06:48:15;96356.06;;;1.98
76347;BMP280;77107;48.816;9.966;2024-03-08T06:50:42;96338.25;;;1.96
76347;BMP280;77107;48.816;9.966;2024-03-08T06:53:07;96347.41;;;1.96
76347;BMP280;77107;48.816;9.966;2024-03-08T06:55:34;96350.38;;;2.02
76347;BMP280;77107;48.816;9.966;2024-03-08T06:58:00;96347.41;;;1.96
76347;BMP280;77107;48.816;9.966;2024-03-08T07:00:26;96350.06;;;2.00
76347;BMP280;77107;48.816;9.966;2024-03-08T07:02:53;96347.28;;;2.00
76347;BMP280;77107;48.816;9.966;2024-03-08T07:05:19;96340.03;;;2.02
76347;BMP280;77107;48.816;9.966;2024-03-08T07:07:45;96348.72;;;2.04
76347;BMP280;77107;48.816;9.966;2024-03-08T07:10:13;96344.28;;;1.94
76347;BMP280;77107;48.816;9.966;2024-03-08T07:12:41;96340.03;;;2.02
76347;BMP280;77107;48.816;9.966;2024-03-08T07:15:08;96343.69;;;2.12
76347;BMP280;77107;48.816;9.966;2024-03-08T07:17:33;96343.03;;;2.08
76347;BMP280;77107;48.816;9.966;2024-03-08T07:20:00;96339.25;;;2.02
76347;BMP280;77107;48.816;9.966;2024-03-08T07:22:32;96336.59;;;2.11
76347;BMP280;77107;48.816;9.966;2024-03-08T07:24:57;96340.34;;;2.17
76347;BMP280;77107;48.816;9.966;2024-03-08T07:27:35;96341.25;;;2.14
76347;BMP280;77107;48.816;9.966;2024-03-08T07:30:03;96330.53;;;2.25
76347;BMP280;77107;48.816;9.966;2024-03-08T07:32:29;96324.59;;;2.35
76347;BMP280;77107;48.816;9.966;2024-03-08T07:34:55;96339.31;;;2.23
76347;BMP280;77107;48.816;9.966;2024-03-08T07:37:20;96329.97;;;2.30
76347;BMP280;77107;48.816;9.966;2024-03-08T07:39:46;96328.59;;;2.34
76347;BMP280;77107;48.816;9.966;2024-03-08T07:42:11;96332.19;;;2.35
76347;BMP280;77107;48.816;9.966;2024-03-08T07:44:37;96320.78;;;2.42
76347;BMP280;77107;48.816;9.966;2024-03-08T07:47:04;96325.69;;;2.38
76347;BMP280;77107;48.816;9.966;2024-03-08T07:49:29;96330.94;;;2.36
76347;BMP280;77107;48.816;9.966;2024-03-08T07:51:55;96324.72;;;2.32
76347;BMP280;77107;48.816;9.966;2024-03-08T07:54:20;96323.44;;;2.45
76347;BMP280;77107;48.816;9.966;2024-03-08T07:56:46;96311.13;;;2.68
76347;BMP280;77107;48.816;9.966;2024-03-08T07:59:12;96315.06;;;2.79
76347;BMP280;77107;48.816;9.966;2024-03-08T08:01:37;96311.31;;;2.73
76347;BMP280;77107;48.816;9.966;2024-03-08T08:04:04;96301.81;;;2.62
76347;BMP280;77107;48.816;9.966;2024-03-08T08:06:30;96302.13;;;2.85
76347;BMP280;77107;48.816;9.966;2024-03-08T08:08:58;96301.16;;;2.79
76347;BMP280;77107;48.816;9.966;2024-03-08T08:11:26;96297.59;;;3.00
76347;BMP280;77107;48.816;9.966;2024-03-08T08:13:52;96307.16;;;2.78
76347;BMP280;77107;48.816;9.966;2024-03-08T08:16:19;96297.06;;;2.93
76347;BMP280;77107;48.816;9.966;2024-03-08T08:18:45;96298.31;;;2.70
76347;BMP280;77107;48.816;9.966;2024-03-08T08:21:12;96296.28;;;2.92
76347;BMP280;77107;48.816;9.966;2024-03-08T08:23:38;96293.03;;;2.94
76347;BMP280;77107;48.816;9.966;2024-03-08T08:26:03;96292.41;;;3.11
76347;BMP280;77107;48.816;9.966;2024-03-08T08:28:29;96292.28;;;2.93
76347;BMP280;77107;48.816;9.966;2024-03-08T08:30:56;96291.09;;;2.82
76347;BMP280;77107;48.816;9.966;2024-03-08T08:33:21;96284.25;;;2.95
76347;BMP280;77107;48.816;9.966;2024-03-08T08:35:46;96287.72;;;3.08
76347;BMP280;77107;48.816;9.966;2024-03-08T08:38:14;96288.53;;;3.18
76347;BMP280;77107;48.816;9.966;2024-03-08T08:40:39;96284.66;;;3.15
76347;BMP280;77107;48.816;9.966;2024-03-08T08:43:06;96288.06;;;3.10
76347;BMP280;77107;48.816;9.966;2024-03-08T08:45:32;96288.78;;;3.32
76347;BMP280;77107;48.816;9.966;2024-03-08T08:47:58;96281.88;;;3.15
76347;BMP280;77107;48.816;9.966;2024-03-08T08:50:25;96276.00;;;3.44
76347;BMP280;77107;48.816;9.966;2024-03-08T08:52:52;96277.69;;;3.41
76347;BMP280;77107;48.816;9.966;2024-03-08T08:55:19;96283.41;;;3.38
76347;BMP280;77107;48.816;9.966;2024-03-08T08:57:50;96282.69;;;3.55
76347;BMP280;77107;48.816;9.966;2024-03-08T09:00:17;96280.38;;;3.54
76347;BMP280;77107;48.816;9.966;2024-03-08T09:02:44;96266.28;;;3.57
76347;BMP280;77107;48.816;9.966;2024-03-08T09:05:09;96272.03;;;3.63
76347;BMP280;77107;48.816;9.966;2024-03-08T09:07:35;96274.31;;;3.55
76347;BMP280;77107;48.816;9.966;2024-03-08T09:10:00;96267.97;;;3.55
76347;BMP280;77107;48.816;9.966;2024-03-08T09:12:27;96265.84;;;3.59
76347;BMP280;77107;48.816;9.966;2024-03-08T09:14:53;96259.38;;;3.71
76347;BMP280;77107;48.816;9.966;2024-03-08T09:17:18;96262.66;;;3.78
76347;BMP280;77107;48.816;9.966;2024-03-08T09:19:46;96260.47;;;3.82
76347;BMP280;77107;48.816;9.966;2024-03-08T09:22:12;96249.16;;;3.77
76347;BMP280;77107;48.816;9.966;2024-03-08T09:24:38;96247.94;;;3.87
76347;BMP280;77107;48.816;9.966;2024-03-08T09:27:04;96249.41;;;4.18
76347;BMP280;77107;48.816;9.966;2024-03-08T09:29:30;96238.22;;;4.45
76347;BMP280;77107;48.816;9.966;2024-03-08T09:31:56;96245.06;;;4.35
76347;BMP280;77107;48.816;9.966;2024-03-08T09:34:21;96254.69;;;4.70
76347;BMP280;77107;48.816;9.966;2024-03-08T09:36:47;96245.16;;;5.54
76347;BMP280;77107;48.816;9.966;2024-03-08T09:39:12;96231.41;;;5.83
76347;BMP280;77107;48.816;9.966;2024-03-08T09:41:42;96235.03;;;5.66
76347;BMP280;77107;48.816;9.966;2024-03-08T09:44:08;96229.22;;;6.34
76347;BMP280;77107;48.816;9.966;2024-03-08T09:46:35;96224.78;;;6.42
76347;BMP280;77107;48.816;9.966;2024-03-08T09:49:01;96225.69;;;6.25
76347;BMP280;77107;48.816;9.966;2024-03-08T09:51:28;96228.97;;;6.23
76347;BMP280;77107;48.816;9.966;2024-03-08T09:53:54;96219.56;;;6.35
76347;BMP280;77107;48.816;9.966;2024-03-08T09:56:19;96219.47;;;7.26
76347;BMP280;77107;48.816;9.966;2024-03-08T09:58:45;96204.94;;;7.56
76347;BMP280;77107;48.816;9.966;2024-03-08T10:01:29;96209.69;;;7.50
76347;BMP280;77107;48.816;9.966;2024-03-08T10:03:56;96208.47;;;7.22
76347;BMP280;77107;48.816;9.966;2024-03-08T10:06:22;96213.47;;;7.33
76347;BMP280;77107;48.816;9.966;2024-03-08T10:08:48;96202.56;;;7.20
76347;BMP280;77107;48.816;9.966;2024-03-08T10:11:13;96197.38;;;7.62
76347;BMP280;77107;48.816;9.966;2024-03-08T10:13:39;96197.34;;;7.42
76347;BMP280;77107;48.816;9.966;2024-03-08T10:16:06;96201.69;;;7.14
76347;BMP280;77107;48.816;9.966;2024-03-08T10:18:32;96206.13;;;7.21
76347;BMP280;77107;48.816;9.966;2024-03-08T10:21:06;96200.69;;;7.46
76347;BMP280;77107;48.816;9.966;2024-03-08T10:23:33;96205.47;;;7.89
76347;BMP280;77107;48.816;9.966;2024-03-08T10:26:09;96186.84;;;7.92
76347;BMP280;77107;48.816;9.966;2024-03-08T10:28:35;96192.63;;;8.03
76347;BMP280;77107;48.816;9.966;2024-03-08T10:31:00;96199.59;;;8.07
76347;BMP280;77107;48.816;9.966;2024-03-08T10:33:25;96194.13;;;8.38
76347;BMP280;77107;48.816;9.966;2024-03-08T10:35:51;96190.22;;;8.50
76347;BMP280;77107;48.816;9.966;2024-03-08T10:38:20;96184.06;;;8.72
76347;BMP280;77107;48.816;9.966;2024-03-08T10:40:46;96198.44;;;8.34
76347;BMP280;77107;48.816;9.966;2024-03-08T10:43:21;96187.19;;;8.34
76347;BMP280;77107;48.816;9.966;2024-03-08T10:45:51;96187.81;;;8.43
76347;BMP280;77107;48.816;9.966;2024-03-08T10:48:28;96182.91;;;8.58
76347;BMP280;77107;48.816;9.966;2024-03-08T10:50:56;96186.81;;;8.66
76347;BMP280;77107;48.816;9.966;2024-03-08T10:53:27;96184.25;;;8.43
76347;BMP280;77107;48.816;9.966;2024-03-08T10:55:53;96175.53;;;8.86
76347;BMP280;77107;48.816;9.966;2024-03-08T10:58:19;96175.16;;;8.73
76347;BMP280;77107;48.816;9.966;2024-03-08T11:00:45;96173.47;;;8.87
76347;BMP280;77107;48.816;9.966;2024-03-08T11:03:44;96172.91;;;8.37
76347;BMP280;77107;48.816;9.966;2024-03-08T11:06:13;96167.91;;;8.67
76347;BMP280;77107;48.816;9.966;2024-03-08T11:08:41;96160.31;;;8.98
76347;BMP280;77107;48.816;9.966;2024-03-08T11:11:23;96163.56;;;8.91
76347;BMP280;77107;48.816;9.966;2024-03-08T11:13:52;96153.47;;;8.79
76347;BMP280;77107;48.816;9.966;2024-03-08T11:16:37;96148.97;;;8.67
76347;BMP280;77107;48.816;9.966;2024-03-08T11:19:07;96153.03;;;8.86
76347;BMP280;77107;48.816;9.966;2024-03-08T11:21:57;96139.91;;;9.03
76347;BMP280;77107;48.816;9.966;2024-03-08T11:24:24;96137.66;;;8.82
76347;BMP280;77107;48.816;9.966;2024-03-08T11:26:56;96138.47;;;8.88
76347;BMP280;77107;48.816;9.966;2024-03-08T11:29:36;96131.63;;;9.56
76347;BMP280;77107;48.816;9.966;2024-03-08T11:32:07;96126.41;;;9.13
76347;BMP280;77107;48.816;9.966;2024-03-08T11:34:35;96131.13;;;9.27
76347;BMP280;77107;48.816;9.966;2024-03-08T11:37:03;96124.72;;;9.57
76347;BMP280;77107;48.816;9.966;2024-03-08T11:39:30;96128.63;;;9.65
76347;BMP280;77107;48.816;9.966;2024-03-08T11:41:55;96116.91;;;10.20
76347;BMP280;77107;48.816;9.966;2024-03-08T11:44:21;96119.56;;;9.92
76347;BMP280;77107;48.816;9.966;2024-03-08T11:46:46;96114.75;;;9.98
76347;BMP280;77107;48.816;9.966;2024-03-08T11:49:13;96109.63;;;10.02
76347;BMP280;77107;48.816;9.966;2024-03-08T11:51:38;96111.81;;;9.76
76347;BMP280;77107;48.816;9.966;2024-03-08T11:54:04;96101.50;;;10.10
76347;BMP280;77107;48.816;9.966;2024-03-08T11:56:32;96090.06;;;10.35
76347;BMP280;77107;48.816;9.966;2024-03-08T11:58:59;96094.00;;;10.65
76347;BMP280;77107;48.816;9.966;2024-03-08T12:01:26;96076.50;;;10.45
76347;BMP280;77107;48.816;9.966;2024-03-08T12:03:52;96079.38;;;10.61
76347;BMP280;77107;48.816;9.966;2024-03-08T12:06:18;96074.78;;;10.80
76347;BMP280;77107;48.816;9.966;2024-03-08T12:08:43;96071.97;;;10.97
76347;BMP280;77107;48.816;9.966;2024-03-08T12:11:08;96067.34;;;10.72
76347;BMP280;77107;48.816;9.966;2024-03-08T12:13:36;96069.16;;;11.08
76347;BMP280;77107;48.816;9.966;2024-03-08T12:16:02;96062.47;;;11.60
76347;BMP280;77107;48.816;9.966;2024-03-08T12:18:33;96060.19;;;11.04
76347;BMP280;77107;48.816;9.966;2024-03-08T12:21:05;96054.50;;;11.37
76347;BMP280;77107;48.816;9.966;2024-03-08T12:23:36;96055.06;;;11.35
76347;BMP280;77107;48.816;9.966;2024-03-08T12:26:11;96037.50;;;11.86
76347;BMP280;77107;48.816;9.966;2024-03-08T12:28:43;96048.06;;;11.80
76347;BMP280;77107;48.816;9.966;2024-03-08T12:31:13;96041.03;;;12.03
76347;BMP280;77107;48.816;9.966;2024-03-08T12:33:48;96036.13;;;12.09
76347;BMP280;77107;48.816;9.966;2024-03-08T12:36:14;96030.16;;;12.64
76347;BMP280;77107;48.816;9.966;2024-03-08T12:38:40;96027.63;;;13.01
76347;BMP280;77107;48.816;9.966;2024-03-08T12:41:05;96024.06;;;13.24
76347;BMP280;77107;48.816;9.966;2024-03-08T12:43:33;96017.47;;;13.46
76347;BMP280;77107;48.816;9.966;2024-03-08T12:46:00;96003.59;;;13.42
76347;BMP280;77107;48.816;9.966;2024-03-08T12:48:25;96005.94;;;13.09
76347;BMP280;77107;48.816;9.966;2024-03-08T12:50:51;95997.78;;;13.00
76347;BMP280;77107;48.816;9.966;2024-03-08T12:53:17;95989.03;;;13.75
76347;BMP280;77107;48.816;9.966;2024-03-08T12:55:43;95991.19;;;13.16
76347;BMP280;77107;48.816;9.966;2024-03-08T12:58:08;95986.03;;;13.44
76347;BMP280;77107;48.816;9.966;2024-03-08T13:00:34;95974.16;;;14.12
76347;BMP280;77107;48.816;9.966;2024-03-08T13:03:03;95972.41;;;14.09
76347;BMP280;77107;48.816;9.966;2024-03-08T13:05:28;95969.63;;;14.03
76347;BMP280;77107;48.816;9.966;2024-03-08T13:07:55;95972.00;;;14.42
76347;BMP280;77107;48.816;9.966;2024-03-08T13:10:22;95973.97;;;13.86
76347;BMP280;77107;48.816;9.966;2024-03-08T13:12:48;95964.84;;;14.54
76347;BMP280;77107;48.816;9.966;2024-03-08T13:15:13;95962.47;;;14.39
76347;BMP280;77107;48.816;9.966;2024-03-08T13:17:45;95960.09;;;14.25
76347;BMP280;77107;48.816;9.966;2024-03-08T13:20:13;95951.59;;;14.75
76347;BMP280;77107;48.816;9.966;2024-03-08T13:22:42;95945.25;;;14.69
76347;BMP280;77107;48.816;9.966;2024-03-08T13:25:08;95945.84;;;14.30
76347;BMP280;77107;48.816;9.966;2024-03-08T13:27:38;95941.06;;;14.57
76347;BMP280;77107;48.816;9.966;2024-03-08T13:30:05;95931.81;;;15.45
76347;BMP280;77107;48.816;9.966;2024-03-08T13:32:32;95942.88;;;14.73
76347;BMP280;77107;48.816;9.966;2024-03-08T13:34:57;95932.16;;;14.10
76347;BMP280;77107;48.816;9.966;2024-03-08T13:37:24;95935.44;;;14.14
76347;BMP280;77107;48.816;9.966;2024-03-08T13:39:49;95938.47;;;14.22
76347;BMP280;77107;48.816;9.966;2024-03-08T13:42:15;95920.66;;;14.90
76347;BMP280;77107;48.816;9.966;2024-03-08T13:44:44;95923.53;;;14.71
76347;BMP280;77107;48.816;9.966;2024-03-08T13:47:11;95916.81;;;14.56
76347;BMP280;77107;48.816;9.966;2024-03-08T13:49:37;95915.38;;;14.81
76347;BMP280;77107;48.816;9.966;2024-03-08T13:52:02;95899.41;;;15.22
76347;BMP280;77107;48.816;9.966;2024-03-08T13:54:30;95897.78;;;15.27
76347;BMP280;77107;48.816;9.966;2024-03-08T13:56:57;95898.00;;;15.29
76347;BMP280;77107;48.816;9.966;2024-03-08T13:59:22;95881.56;;;15.09
76347;BMP280;77107;48.816;9.966;2024-03-08T14:01:48;95886.81;;;15.05
76347;BMP280;77107;48.816;9.966;2024-03-08T14:04:14;95881.88;;;15.50
76347;BMP280;77107;48.816;9.966;2024-03-08T14:06:42;95874.06;;;15.24
76347;BMP280;77107;48.816;9.966;2024-03-08T14:09:08;95877.44;;;15.10
76347;BMP280;77107;48.816;9.966;2024-03-08T14:11:34;95873.28;;;15.24
76347;BMP280;77107;48.816;9.966;2024-03-08T14:14:00;95874.44;;;14.89
76347;BMP280;77107;48.816;9.966;2024-03-08T14:16:25;95871.16;;;14.85